createdAt,value
2022-08-26T00:01:56.739Z,99874.06
2022-08-26T00:04:20.333Z,99875.84
2022-08-26T00:06:46.156Z,99876.34
2022-08-26T00:09:09.907Z,99878.13
2022-08-26T00:11:33.224Z,99884.28
2022-08-26T00:13:58.047Z,99879.06
2022-08-26T00:16:21.660Z,99878.34
2022-08-26T00:18:45.001Z,99885.31
2022-08-26T00:21:08.554Z,99877.69
2022-08-26T00:23:31.839Z,99877.59
2022-08-26T00:25:55.383Z,99874.03
2022-08-26T00:28:20.160Z,99874.72
2022-08-26T00:30:48.198Z,99872.66
2022-08-26T00:33:14.868Z,99873.47
2022-08-26T00:35:38.160Z,99873.94
2022-08-26T00:38:07.553Z,99876.94
2022-08-26T00:40:32.676Z,99870.78
2022-08-26T00:42:56.537Z,99871.03
2022-08-26T00:45:19.782Z,99870.09
2022-08-26T00:47:47.310Z,99855.59
2022-08-26T00:50:13.118Z,99859.38
2022-08-26T00:52:38.858Z,99876.81
2022-08-26T00:55:04.510Z,99871.41
2022-08-26T00:57:27.947Z,99868.06
2022-08-26T00:59:54.397Z,99877.25
2022-08-26T01:02:20.787Z,99881.59
2022-08-26T01:04:46.367Z,99879.63
2022-08-26T01:07:10.791Z,99883.75
2022-08-26T01:09:34.145Z,99883.47
2022-08-26T01:11:58.531Z,99888.13
2022-08-26T01:14:22.254Z,99882.91
2022-08-26T01:16:45.556Z,99875.47
2022-08-26T01:19:14.327Z,99871.44
2022-08-26T01:21:42.186Z,99867.31
2022-08-26T01:24:07.271Z,99866.00
2022-08-26T01:26:37.518Z,99874.44
2022-08-26T01:29:01.414Z,99864.88
2022-08-26T01:31:27.047Z,99853.78
2022-08-26T01:33:53.989Z,99872.59
2022-08-26T01:36:17.398Z,99862.75
2022-08-26T01:38:41.107Z,99859.78
2022-08-26T01:41:16.181Z,99864.97
2022-08-26T01:43:44.326Z,99860.59
2022-08-26T01:46:07.668Z,99848.25
2022-08-26T01:48:35.320Z,99859.22
2022-08-26T01:50:58.722Z,99837.22
2022-08-26T01:53:22.656Z,99848.75
2022-08-26T01:55:47.152Z,99846.53
2022-08-26T01:58:17.665Z,99845.59
2022-08-26T02:00:42.185Z,99851.66
2022-08-26T02:03:21.632Z,99852.28
2022-08-26T02:05:51.380Z,99845.84
2022-08-26T02:08:15.184Z,99849.78
2022-08-26T02:10:47.371Z,99841.59
2022-08-26T02:13:10.585Z,99846.63
2022-08-26T02:15:35.357Z,99838.13
2022-08-26T02:17:58.901Z,99846.03
2022-08-26T02:20:22.342Z,99844.94
2022-08-26T02:22:47.209Z,99852.59
2022-08-26T02:25:13.226Z,99843.72
2022-08-26T02:27:36.638Z,99846.16
2022-08-26T02:30:02.243Z,99845.22
2022-08-26T02:32:27.931Z,99845.31
2022-08-26T02:34:51.235Z,99847.34
2022-08-26T02:37:15.289Z,99846.63
2022-08-26T02:39:42.057Z,99854.16
2022-08-26T02:42:05.403Z,99846.16
2022-08-26T02:44:28.878Z,99846.16
2022-08-26T02:46:52.880Z,99841.78
2022-08-26T02:49:19.482Z,99837.47
2022-08-26T02:51:43.577Z,99840.00
2022-08-26T02:54:06.981Z,99846.53
2022-08-26T02:56:30.489Z,99847.66
2022-08-26T02:58:53.751Z,99844.50
2022-08-26T03:01:22.255Z,99851.31
2022-08-26T03:03:45.616Z,99844.22
2022-08-26T03:06:15.473Z,99842.78
2022-08-26T03:08:39.352Z,99844.84
2022-08-26T03:11:03.088Z,99845.75
2022-08-26T03:13:26.491Z,99855.19
2022-08-26T03:15:49.917Z,99856.50
2022-08-26T03:18:13.374Z,99850.88
2022-08-26T03:20:36.665Z,99859.41
2022-08-26T03:23:01.434Z,99853.66
2022-08-26T03:25:25.789Z,99859.09
2022-08-26T03:27:49.181Z,99857.34
2022-08-26T03:30:30.649Z,99858.94
2022-08-26T03:32:54.051Z,99863.31
2022-08-26T03:35:17.374Z,99859.41
2022-08-26T03:37:40.913Z,99853.81
2022-08-26T03:40:06.338Z,99851.88
2022-08-26T03:42:29.744Z,99848.22
2022-08-26T03:44:53.119Z,99858.53
2022-08-26T03:47:17.254Z,99850.97
2022-08-26T03:49:40.810Z,99859.19
2022-08-26T03:52:04.745Z,99863.38
2022-08-26T03:54:29.006Z,99859.22
2022-08-26T03:56:54.094Z,99860.78
2022-08-26T03:59:17.407Z,99862.28
2022-08-26T04:01:41.041Z,99853.72
2022-08-26T04:04:05.078Z,99854.09
2022-08-26T04:06:30.901Z,99863.81
2022-08-26T04:08:54.890Z,99859.03
2022-08-26T04:11:19.547Z,99861.38
2022-08-26T04:13:44.342Z,99864.06
2022-08-26T04:16:08.057Z,99866.78
2022-08-26T04:18:36.962Z,99862.94
2022-08-26T04:21:00.615Z,99864.06
2022-08-26T04:23:25.233Z,99867.41
2022-08-26T04:25:48.762Z,99873.88
2022-08-26T04:28:14.873Z,99874.38
2022-08-26T04:30:39.907Z,99870.41
2022-08-26T04:33:13.060Z,99877.72
2022-08-26T04:35:37.176Z,99877.09
2022-08-26T04:38:00.958Z,99888.53
2022-08-26T04:40:24.674Z,99881.78
2022-08-26T04:42:49.426Z,99887.81
2022-08-26T04:45:14.149Z,99891.84
2022-08-26T04:47:38.952Z,99888.06
2022-08-26T04:50:02.273Z,99890.28
2022-08-26T04:52:26.587Z,99885.41
2022-08-26T04:54:51.541Z,99883.00
2022-08-26T04:57:14.840Z,99883.13
2022-08-26T04:59:39.551Z,99890.63
2022-08-26T05:02:03.835Z,99886.13
2022-08-26T05:04:30.614Z,99880.72
2022-08-26T05:06:56.746Z,99878.00
2022-08-26T05:09:23.089Z,99885.28
2022-08-26T05:11:48.480Z,99881.75
2022-08-26T05:14:15.231Z,99878.59
2022-08-26T05:16:38.962Z,99886.31
2022-08-26T05:19:04.430Z,99884.38
2022-08-26T05:21:29.644Z,99885.75
2022-08-26T05:23:54.807Z,99892.72
2022-08-26T05:26:23.039Z,99888.44
2022-08-26T05:28:46.803Z,99888.25
2022-08-26T05:31:15.535Z,99892.06
2022-08-26T05:33:41.408Z,99890.97
2022-08-26T05:36:08.157Z,99898.81
2022-08-26T05:38:34.844Z,99894.13
2022-08-26T05:40:59.683Z,99897.16
2022-08-26T05:43:25.022Z,99897.59
2022-08-26T05:45:49.513Z,99897.03
2022-08-26T05:48:13.496Z,99897.47
2022-08-26T05:50:39.820Z,99890.41
2022-08-26T05:53:03.201Z,99891.16
2022-08-26T05:55:29.978Z,99891.25
2022-08-26T05:57:53.608Z,99883.03
2022-08-26T06:00:17.322Z,99888.50
2022-08-26T06:02:40.819Z,99884.47
2022-08-26T06:05:04.260Z,99892.72
2022-08-26T06:07:44.833Z,99886.53
2022-08-26T06:10:30.866Z,99894.91
2022-08-26T06:12:53.721Z,99894.28
2022-08-26T06:15:17.529Z,99910.97
2022-08-26T06:17:40.906Z,99895.50
2022-08-26T06:20:04.683Z,99908.66
2022-08-26T06:22:45.906Z,99914.06
2022-08-26T06:25:26.972Z,99925.41
2022-08-26T06:27:50.951Z,99919.09
2022-08-26T06:30:15.908Z,99927.75
2022-08-26T06:32:40.179Z,99939.03
2022-08-26T06:35:03.465Z,99944.06
2022-08-26T06:37:26.991Z,99946.41
2022-08-26T06:39:51.226Z,99946.88
2022-08-26T06:42:14.417Z,99945.84
2022-08-26T06:44:38.271Z,99947.53
2022-08-26T06:47:06.233Z,99958.16
2022-08-26T06:49:29.609Z,99959.66
2022-08-26T06:51:52.912Z,99958.41
2022-08-26T06:54:16.319Z,99958.59
2022-08-26T06:56:40.978Z,99958.34
2022-08-26T06:59:04.658Z,99959.97
2022-08-26T07:01:33.052Z,99957.28
2022-08-26T07:03:58.463Z,99953.41
2022-08-26T07:06:21.723Z,99959.47
2022-08-26T07:08:45.150Z,99951.22
2022-08-26T07:11:08.687Z,99948.88
2022-08-26T07:13:32.035Z,99960.56
2022-08-26T07:15:58.014Z,99956.69
2022-08-26T07:18:26.348Z,99954.38
2022-08-26T07:20:51.036Z,99960.69
2022-08-26T07:23:14.376Z,99960.94
2022-08-26T07:25:40.953Z,99969.88
2022-08-26T07:28:05.489Z,99969.50
2022-08-26T07:30:30.071Z,99977.69
2022-08-26T07:32:53.362Z,99970.22
2022-08-26T07:35:16.987Z,99977.31
2022-08-26T07:37:41.935Z,99971.06
2022-08-26T07:40:06.118Z,99971.88
2022-08-26T07:42:30.256Z,99976.91
2022-08-26T07:44:53.626Z,99984.88
2022-08-26T07:47:24.686Z,99982.78
2022-08-26T07:49:48.609Z,99979.06
2022-08-26T07:52:16.277Z,99974.47
2022-08-26T07:54:47.397Z,99969.22
2022-08-26T07:57:10.680Z,99964.41
2022-08-26T07:59:34.141Z,99967.44
2022-08-26T08:01:59.227Z,99961.69
2022-08-26T08:04:26.390Z,99954.53
2022-08-26T08:06:50.297Z,99952.56
2022-08-26T08:09:14.206Z,99955.72
2022-08-26T08:11:41.459Z,99949.97
2022-08-26T08:14:08.450Z,99955.56
2022-08-26T08:16:32.314Z,99951.19
2022-08-26T08:18:56.670Z,99955.19
2022-08-26T08:21:23.901Z,99950.59
2022-08-26T08:23:47.677Z,99946.47
2022-08-26T08:26:11.659Z,99956.72
2022-08-26T08:28:36.362Z,99949.03
2022-08-26T08:30:59.738Z,99954.47
2022-08-26T08:33:23.238Z,99948.66
2022-08-26T08:35:46.844Z,99940.25
2022-08-26T08:38:10.269Z,99941.13
2022-08-26T08:40:33.900Z,99936.91
2022-08-26T08:42:59.741Z,99930.84
2022-08-26T08:45:36.283Z,99937.09
2022-08-26T08:48:01.963Z,99935.25
2022-08-26T08:50:27.699Z,99937.38
2022-08-26T08:52:53.570Z,99941.13
2022-08-26T08:55:18.243Z,99945.88
2022-08-26T08:57:48.184Z,99939.38
2022-08-26T09:00:18.222Z,99942.97
2022-08-26T09:02:46.239Z,99938.66
2022-08-26T09:05:14.992Z,99939.69
2022-08-26T09:07:39.573Z,99940.31
2022-08-26T09:10:05.477Z,99928.63
2022-08-26T09:12:31.561Z,99933.88
2022-08-26T09:14:57.737Z,99934.50
2022-08-26T09:17:27.930Z,99934.31
2022-08-26T09:19:53.857Z,99932.81
2022-08-26T09:22:29.215Z,99937.66
2022-08-26T09:24:52.635Z,99939.53
2022-08-26T09:27:21.762Z,99929.50
2022-08-26T09:29:45.557Z,99932.22
2022-08-26T09:32:20.292Z,99928.50
2022-08-26T09:34:56.424Z,99929.34
2022-08-26T09:37:20.893Z,99917.66
2022-08-26T09:39:44.309Z,99924.75
2022-08-26T09:42:09.849Z,99931.00
2022-08-26T09:44:33.260Z,99939.97
2022-08-26T09:46:58.767Z,99927.84
2022-08-26T09:49:35.872Z,99943.34
2022-08-26T09:52:10.580Z,99938.97
2022-08-26T09:54:34.205Z,99937.91
2022-08-26T09:57:00.697Z,99938.75
2022-08-26T09:59:30.858Z,99943.34
2022-08-26T10:01:55.030Z,99939.78
2022-08-26T10:04:22.496Z,99930.94
2022-08-26T10:06:56.958Z,99948.94
2022-08-26T10:09:22.704Z,99946.03
2022-08-26T10:11:47.940Z,99946.88
2022-08-26T10:14:14.994Z,99945.00
2022-08-26T10:16:41.290Z,99939.97
2022-08-26T10:19:06.417Z,99948.09
2022-08-26T10:21:31.368Z,99943.72
2022-08-26T10:23:56.071Z,99948.75
2022-08-26T10:26:22.790Z,99938.75
2022-08-26T10:28:49.585Z,99936.03
2022-08-26T10:31:28.738Z,99934.53
2022-08-26T10:33:56.662Z,99937.69
2022-08-26T10:37:05.076Z,99931.44
2022-08-26T10:39:26.754Z,99923.31
2022-08-26T10:41:52.858Z,99931.25
2022-08-26T10:44:16.623Z,99929.97
2022-08-26T10:46:41.966Z,99937.69
2022-08-26T10:49:08.121Z,99925.59
2022-08-26T10:51:35.689Z,99933.75
2022-08-26T10:54:00.337Z,99940.84
2022-08-26T10:56:29.167Z,99929.00
2022-08-26T10:59:00.057Z,99931.69
2022-08-26T11:01:44.041Z,99926.28
2022-08-26T11:04:17.513Z,99927.94
2022-08-26T11:06:41.861Z,99929.00
2022-08-26T11:09:06.067Z,99925.25
2022-08-26T11:11:46.999Z,99927.13
2022-08-26T11:14:11.895Z,99922.53
2022-08-26T11:16:42.984Z,99855.06
2022-08-26T11:19:07.686Z,99917.78
2022-08-26T11:21:50.816Z,99910.66
2022-08-26T11:25:01.118Z,99913.38
2022-08-26T11:27:54.595Z,99908.78
2022-08-26T11:30:56.925Z,99908.78
2022-08-26T11:33:48.940Z,99912.38
2022-08-26T11:36:41.136Z,99913.38
2022-08-26T11:39:05.242Z,99906.25
2022-08-26T11:41:31.384Z,99907.94
2022-08-26T11:43:55.458Z,99910.66
2022-08-26T11:46:26.866Z,99907.94
2022-08-26T11:48:50.179Z,99915.06
2022-08-26T11:51:14.725Z,99902.53
2022-08-26T11:53:39.253Z,99908.59
2022-08-26T11:56:03.681Z,99907.78
2022-08-26T11:58:27.974Z,99902.34
2022-08-26T12:00:52.750Z,99899.81
2022-08-26T12:03:20.132Z,99901.88
2022-08-26T12:05:47.881Z,99879.50
2022-08-26T12:08:13.064Z,99883.28
2022-08-26T12:10:36.554Z,99893.38
2022-08-26T12:13:00.839Z,99899.81
2022-08-26T12:15:24.237Z,99893.53
2022-08-26T12:17:52.929Z,99887.28
2022-08-26T12:20:45.863Z,99887.97
2022-08-26T12:23:09.334Z,99884.56
2022-08-26T12:25:36.161Z,99888.97
2022-08-26T12:28:04.738Z,99877.25
2022-08-26T12:30:28.502Z,99876.91
2022-08-26T12:32:58.759Z,99868.69
2022-08-26T12:35:23.901Z,99881.66
2022-08-26T12:37:49.836Z,99875.41
2022-08-26T12:40:28.907Z,99876.25
2022-08-26T12:42:52.413Z,99868.97
2022-08-26T12:45:16.293Z,99869.59
2022-08-26T12:47:43.454Z,99867.09
2022-08-26T12:50:09.157Z,99861.00
2022-08-26T12:52:35.719Z,99858.28
2022-08-26T12:55:00.292Z,99851.19
2022-08-26T12:57:27.409Z,99857.44
2022-08-26T12:59:50.706Z,99856.63
2022-08-26T13:02:37.752Z,99858.50
2022-08-26T13:05:01.185Z,99862.44
2022-08-26T13:07:25.894Z,99871.81
2022-08-26T13:09:51.358Z,99863.28
2022-08-26T13:12:23.571Z,99860.78
2022-08-26T13:14:47.177Z,99856.56
2022-08-26T13:17:10.516Z,99865.97
2022-08-26T13:19:33.777Z,99859.50
2022-08-26T13:21:57.878Z,99860.97
2022-08-26T13:24:23.143Z,99859.94
2022-08-26T13:26:49.043Z,99851.16
2022-08-26T13:29:12.431Z,99854.91
2022-08-26T13:31:35.830Z,99854.91
2022-08-26T13:34:00.412Z,99864.31
2022-08-26T13:36:24.260Z,99864.72
2022-08-26T13:38:48.451Z,99856.56
2022-08-26T13:41:15.422Z,99863.22
2022-08-26T13:43:41.426Z,99859.69
2022-08-26T13:46:04.881Z,99855.25
2022-08-26T13:48:28.210Z,99857.63
2022-08-26T13:50:52.609Z,99848.44
2022-08-26T13:53:15.715Z,99858.91
2022-08-26T13:55:39.049Z,99854.31
2022-08-26T13:58:02.322Z,99848.44
2022-08-26T14:00:27.171Z,99841.97
2022-08-26T14:02:50.569Z,99846.16
2022-08-26T14:05:14.074Z,99851.16
2022-08-26T14:07:37.380Z,99836.13
2022-08-26T14:10:01.358Z,99844.47
2022-08-26T14:12:24.945Z,99847.19
2022-08-26T14:14:48.332Z,99848.19
2022-08-26T14:17:13.456Z,99819.34
2022-08-26T14:19:36.725Z,99844.66
2022-08-26T14:22:00.962Z,99842.97
2022-08-26T14:24:24.414Z,99851.13
2022-08-26T14:26:48.584Z,99847.75
2022-08-26T14:29:14.710Z,99844.47
2022-08-26T14:31:39.916Z,99844.22
2022-08-26T14:34:05.768Z,99851.50
2022-08-26T14:36:29.219Z,99847.75
2022-08-26T14:38:52.491Z,99854.47
2022-08-26T14:41:16.446Z,99850.28
2022-08-26T14:43:40.607Z,99848.19
2022-08-26T14:46:03.881Z,99855.72
2022-08-26T14:48:27.243Z,99860.53
2022-08-26T14:50:51.970Z,99861.97
2022-08-26T14:53:32.861Z,99860.72
2022-08-26T14:55:56.175Z,99871.56
2022-08-26T14:58:19.401Z,99869.03
2022-08-26T15:00:42.619Z,99870.47
2022-08-26T15:03:06.143Z,99864.84
2022-08-26T15:05:29.650Z,99868.59
2022-08-26T15:07:54.302Z,99875.91
2022-08-26T15:10:18.106Z,99870.94
2022-08-26T15:12:41.954Z,99881.75
2022-08-26T15:15:05.918Z,99877.38
2022-08-26T15:17:29.911Z,99872.81
2022-08-26T15:19:53.212Z,99877.19
2022-08-26T15:22:16.537Z,99881.16
2022-08-26T15:24:41.150Z,99880.72
2022-08-26T15:27:04.715Z,99882.84
2022-08-26T15:29:27.950Z,99884.75
2022-08-26T15:31:51.337Z,99884.09
2022-08-26T15:34:16.986Z,99877.44
2022-08-26T15:36:42.689Z,99888.06
2022-08-26T15:39:06.975Z,99881.16
2022-08-26T15:41:34.804Z,99882.81
2022-08-26T15:43:58.460Z,99879.06
2022-08-26T15:46:21.735Z,99877.84
2022-08-26T15:48:45.029Z,99876.56
2022-08-26T15:51:08.379Z,99872.81
2022-08-26T15:53:32.586Z,99878.22
2022-08-26T15:55:56.313Z,99878.88
2022-08-26T15:58:21.065Z,99882.81
2022-08-26T16:00:44.862Z,99884.09
2022-08-26T16:03:08.109Z,99882.41
2022-08-26T16:05:31.451Z,99881.59
2022-08-26T16:07:55.067Z,99879.72
2022-08-26T16:10:18.694Z,99881.97
2022-08-26T16:12:42.158Z,99884.69
2022-08-26T16:15:07.968Z,99888.22
2022-08-26T16:17:31.189Z,99892.81
2022-08-26T16:19:54.486Z,99893.00
2022-08-26T16:22:17.805Z,99896.75
2022-08-26T16:24:41.023Z,99906.56
2022-08-26T16:27:04.435Z,99891.53
2022-08-26T16:29:27.686Z,99904.63
2022-08-26T16:31:53.364Z,99904.88
2022-08-26T16:34:16.623Z,99912.38
2022-08-26T16:36:39.970Z,99902.13
2022-08-26T16:39:03.473Z,99902.19
2022-08-26T16:41:31.357Z,99902.81
2022-08-26T16:43:54.706Z,99911.78
2022-08-26T16:46:18.752Z,99918.63
2022-08-26T16:48:43.746Z,99911.34
2022-08-26T16:51:07.330Z,99918.44
2022-08-26T16:53:31.512Z,99922.78
2022-08-26T16:55:55.188Z,99926.09
2022-08-26T16:58:18.424Z,99931.50
2022-08-26T17:00:41.813Z,99945.06
2022-08-26T17:03:05.119Z,99947.75
2022-08-26T17:05:29.907Z,99946.13
2022-08-26T17:07:53.421Z,99946.13
2022-08-26T17:10:16.679Z,99946.59
2022-08-26T17:12:39.989Z,99951.81
2022-08-26T17:15:03.754Z,99955.34
2022-08-26T17:17:27.129Z,99959.53
2022-08-26T17:19:50.345Z,99964.38
2022-08-26T17:22:14.969Z,99964.63
2022-08-26T17:24:38.226Z,99967.97
2022-08-26T17:27:01.616Z,99972.94
2022-08-26T17:29:24.818Z,99972.94
2022-08-26T17:31:48.040Z,99982.97
2022-08-26T17:34:11.385Z,99972.13
2022-08-26T17:36:34.657Z,99961.28
2022-08-26T17:38:59.577Z,99971.94
2022-08-26T17:41:22.843Z,99973.16
2022-08-26T17:43:46.227Z,99972.13
2022-08-26T17:46:10.676Z,99971.28
2022-08-26T17:48:34.014Z,99981.28
2022-08-26T17:50:57.481Z,99981.69
2022-08-26T17:53:20.769Z,99978.56
2022-08-26T17:55:45.803Z,99974.16
2022-08-26T17:58:09.223Z,99979.19
2022-08-26T18:00:33.427Z,99993.56
2022-08-26T18:02:56.803Z,99988.78
2022-08-26T18:05:20.070Z,99997.69
2022-08-26T18:07:43.993Z,99992.91
2022-08-26T18:10:12.956Z,99996.66
2022-08-26T18:12:38.010Z,99996.66
2022-08-26T18:15:01.628Z,99997.28
2022-08-26T18:17:24.996Z,99996.66
2022-08-26T18:19:49.049Z,99997.88
2022-08-26T18:22:12.301Z,100004.97
2022-08-26T18:24:39.101Z,100001.44
2022-08-26T18:27:02.346Z,100004.16
2022-08-26T18:29:30.138Z,100003.56
2022-08-26T18:31:53.444Z,99999.75
2022-08-26T18:34:17.006Z,99996.28
2022-08-26T18:36:40.928Z,99990.97
2022-08-26T18:39:04.720Z,99997.16
2022-08-26T18:41:29.399Z,99990.34
2022-08-26T18:43:53.210Z,99992.84
2022-08-26T18:46:17.954Z,99988.09
2022-08-26T18:48:41.614Z,99987.25
2022-08-26T18:51:05.170Z,99981.84
2022-08-26T18:53:28.503Z,99980.78
2022-08-26T18:55:52.064Z,99992.25
2022-08-26T18:58:16.445Z,99987.50
2022-08-26T19:00:39.534Z,99992.72
2022-08-26T19:03:04.369Z,99993.56
2022-08-26T19:05:31.510Z,99998.34
2022-08-26T19:07:56.514Z,100000.38
2022-08-26T19:10:19.882Z,100003.75
2022-08-26T19:12:43.882Z,100004.97
2022-08-26T19:15:08.312Z,100005.81
2022-08-26T19:17:31.332Z,100004.16
2022-08-26T19:19:55.974Z,99999.75
2022-08-26T19:22:19.924Z,99994.53
2022-08-26T19:24:43.185Z,99998.22
2022-08-26T19:27:06.670Z,99989.56
2022-08-26T19:29:31.446Z,99992.66
2022-08-26T19:31:54.722Z,99998.47
2022-08-26T19:34:20.998Z,99992.22
2022-08-26T19:36:46.829Z,99989.66
2022-08-26T19:39:10.171Z,99997.34
2022-08-26T19:41:37.482Z,99993.75
2022-08-26T19:44:01.817Z,100001.81
2022-08-26T19:46:29.455Z,99997.59
2022-08-26T19:48:55.719Z,99994.69
2022-08-26T19:51:20.453Z,99993.38
2022-08-26T19:53:45.283Z,99993.25
2022-08-26T19:56:08.555Z,99991.75
2022-08-26T19:58:31.827Z,99998.63
2022-08-26T20:00:55.185Z,99998.94
2022-08-26T20:03:18.506Z,100002.91
2022-08-26T20:05:41.858Z,99997.06
2022-08-26T20:08:05.391Z,99998.41
2022-08-26T20:10:30.033Z,99996.56
2022-08-26T20:12:53.448Z,99996.84
2022-08-26T20:15:16.902Z,99987.56
2022-08-26T20:17:40.171Z,99989.19
2022-08-26T20:20:32.612Z,99991.72
2022-08-26T20:22:57.220Z,99987.66
2022-08-26T20:25:21.001Z,99985.84
2022-08-26T20:27:46.495Z,99991.06
2022-08-26T20:30:10.755Z,100000.19
2022-08-26T20:32:35.682Z,100000.78
2022-08-26T20:34:59.302Z,99999.47
2022-08-26T20:37:22.608Z,99996.47
2022-08-26T20:39:46.158Z,100009.06
2022-08-26T20:42:19.899Z,100006.81
2022-08-26T20:44:47.371Z,99999.25
2022-08-26T20:47:19.228Z,99997.78
2022-08-26T20:49:42.270Z,100001.25
2022-08-26T20:52:05.823Z,99996.47
2022-08-26T20:54:29.206Z,99993.59
2022-08-26T20:56:52.574Z,100000.31
2022-08-26T20:59:16.576Z,99999.78
2022-08-26T21:01:42.437Z,100007.47
2022-08-26T21:04:06.943Z,100002.88
2022-08-26T21:06:30.500Z,100002.88
2022-08-26T21:08:55.147Z,99995.22
2022-08-26T21:11:18.432Z,99997.06
2022-08-26T21:14:03.482Z,99993.78
2022-08-26T21:16:25.090Z,99989.03
2022-08-26T21:18:49.957Z,99987.31
2022-08-26T21:21:13.292Z,99985.94
2022-08-26T21:23:36.673Z,99984.81
2022-08-26T21:26:02.670Z,99977.44
2022-08-26T21:28:25.840Z,99975.41
2022-08-26T21:30:49.153Z,99968.88
2022-08-26T21:33:12.341Z,99965.78
2022-08-26T21:35:37.029Z,99968.88
2022-08-26T21:38:00.203Z,99963.22
2022-08-26T21:40:23.448Z,99967.94
2022-08-26T21:42:46.690Z,99969.25
2022-08-26T21:45:11.771Z,99971.59
2022-08-26T21:47:35.047Z,99971.66
2022-08-26T21:49:58.261Z,99975.56
2022-08-26T21:52:22.896Z,99976.66
2022-08-26T21:54:49.158Z,99978.16
2022-08-26T21:57:12.846Z,99978.19
2022-08-26T21:59:36.114Z,99972.69
2022-08-26T22:01:59.371Z,99974.66
2022-08-26T22:04:22.814Z,99980.44
2022-08-26T22:06:47.734Z,99975.03
2022-08-26T22:09:12.358Z,99989.84
2022-08-26T22:11:35.548Z,99982.22
2022-08-26T22:13:58.782Z,99982.22
2022-08-26T22:16:22.335Z,99978.84
2022-08-26T22:18:45.849Z,99973.44
2022-08-26T22:21:10.170Z,99977.28
2022-08-26T22:23:33.431Z,99979.97
2022-08-26T22:25:58.495Z,99983.25
2022-08-26T22:28:21.830Z,99987.63
2022-08-26T22:30:45.204Z,99988.84
2022-08-26T22:33:08.407Z,99992.66
2022-08-26T22:35:31.790Z,99986.19
2022-08-26T22:37:55.033Z,99986.56
2022-08-26T22:40:20.559Z,99988.44
2022-08-26T22:42:57.987Z,99987.34
2022-08-26T22:45:23.656Z,99975.28
2022-08-26T22:47:46.883Z,99984.19
2022-08-26T22:50:10.414Z,99985.84
2022-08-26T22:52:33.605Z,99980.34
2022-08-26T22:54:56.835Z,99977.09
2022-08-26T22:57:20.149Z,99983.34
2022-08-26T22:59:44.749Z,99985.69
2022-08-26T23:02:08.094Z,99987.88
2022-08-26T23:04:35.231Z,99979.69
2022-08-26T23:06:58.967Z,99994.44
2022-08-26T23:09:22.289Z,99988.19
2022-08-26T23:11:46.318Z,99993.84
2022-08-26T23:14:09.656Z,99991.63
2022-08-26T23:16:39.107Z,99990.59
2022-08-26T23:19:02.685Z,99993.69
2022-08-26T23:21:25.954Z,99994.81
2022-08-26T23:23:49.155Z,99989.13
2022-08-26T23:26:16.713Z,99989.03
2022-08-26T23:28:41.040Z,99986.81
2022-08-26T23:31:04.246Z,99985.41
2022-08-26T23:33:48.813Z,99987.72
2022-08-26T23:36:15.787Z,99986.13
2022-08-26T23:38:41.661Z,99973.75
2022-08-26T23:41:04.874Z,99979.06
2022-08-26T23:43:29.500Z,99973.56
2022-08-26T23:45:52.753Z,99970.09
2022-08-26T23:48:16.043Z,99983.03
2022-08-26T23:51:01.529Z,99980.34
2022-08-26T23:53:24.806Z,99981.94
2022-08-26T23:55:49.214Z,99982.97
2022-08-26T23:58:12.498Z,99985.78
